sensor_id;sensor_type;location;lat;lon;timestamp;temperature;humidity
6865;DHT22;3471;49.678;8.388;2024-03-02T00:00:51;6.50;99.90
6865;DHT22;3471;49.678;8.388;2024-03-02T00:03:17;6.40;99.90
6865;DHT22;3471;49.678;8.388;2024-03-02T00:05:43;6.40;99.90
6865;DHT22;3471;49.678;8.388;2024-03-02T00:08:09;6.30;99.90
6865;DHT22;3471;49.678;8.388;2024-03-02T00:10:39;6.30;99.90
6865;DHT22;3471;49.678;8.388;2024-03-02T00:13:08;6.30;99.90
6865;DHT22;3471;49.678;8.388;2024-03-02T00:15:40;6.20;99.90
6865;DHT22;3471;49.678;8.388;2024-03-02T00:18:18;6.20;99.90
6865;DHT22;3471;49.678;8.388;2024-03-02T00:20:44;6.10;99.90
6865;DHT22;3471;49.678;8.388;2024-03-02T00:23:10;6.00;99.90
6865;DHT22;3471;49.678;8.388;2024-03-02T00:25:48;6.00;99.90
6865;DHT22;3471;49.678;8.388;2024-03-02T00:28:17;6.10;99.90
6865;DHT22;3471;49.678;8.388;2024-03-02T00:33:10;6.10;99.90
6865;DHT22;3471;49.678;8.388;2024-03-02T00:35:36;6.20;99.90
6865;DHT22;3471;49.678;8.388;2024-03-02T00:38:05;6.10;99.90
6865;DHT22;3471;49.678;8.388;2024-03-02T00:40:31;6.10;99.90
6865;DHT22;3471;49.678;8.388;2024-03-02T00:42:57;6.10;99.90
6865;DHT22;3471;49.678;8.388;2024-03-02T00:45:23;6.10;99.90
6865;DHT22;3471;49.678;8.388;2024-03-02T00:47:50;6.00;99.90
6865;DHT22;3471;49.678;8.388;2024-03-02T00:50:16;5.90;99.90
6865;DHT22;3471;49.678;8.388;2024-03-02T00:52:42;5.90;99.90
6865;DHT22;3471;49.678;8.388;2024-03-02T00:55:08;5.90;99.90
6865;DHT22;3471;49.678;8.388;2024-03-02T00:57:34;5.90;99.90
6865;DHT22;3471;49.678;8.388;2024-03-02T01:00:00;5.90;99.90
6865;DHT22;3471;49.678;8.388;2024-03-02T01:02:26;5.90;99.90
6865;DHT22;3471;49.678;8.388;2024-03-02T01:04:52;5.90;99.90
6865;DHT22;3471;49.678;8.388;2024-03-02T01:07:17;5.90;99.90
6865;DHT22;3471;49.678;8.388;2024-03-02T01:09:43;5.90;99.90
6865;DHT22;3471;49.678;8.388;2024-03-02T01:12:08;5.90;99.90
6865;DHT22;3471;49.678;8.388;2024-03-02T01:14:34;5.90;99.90
6865;DHT22;3471;49.678;8.388;2024-03-02T01:17:00;5.80;99.90
6865;DHT22;3471;49.678;8.388;2024-03-02T01:19:29;5.80;99.90
6865;DHT22;3471;49.678;8.388;2024-03-02T01:21:54;5.80;99.90
6865;DHT22;3471;49.678;8.388;2024-03-02T01:24:20;5.70;99.90
6865;DHT22;3471;49.678;8.388;2024-03-02T01:26:45;5.70;99.90
6865;DHT22;3471;49.678;8.388;2024-03-02T01:29:11;5.60;99.90
6865;DHT22;3471;49.678;8.388;2024-03-02T01:31:36;5.50;99.90
6865;DHT22;3471;49.678;8.388;2024-03-02T01:34:02;5.50;99.90
6865;DHT22;3471;49.678;8.388;2024-03-02T01:36:28;5.50;99.90
6865;DHT22;3471;49.678;8.388;2024-03-02T01:38:53;5.50;99.90
6865;DHT22;3471;49.678;8.388;2024-03-02T01:41:19;5.50;99.90
6865;DHT22;3471;49.678;8.388;2024-03-02T01:43:44;5.50;99.90
6865;DHT22;3471;49.678;8.388;2024-03-02T01:46:10;5.50;99.90
6865;DHT22;3471;49.678;8.388;2024-03-02T01:48:35;5.50;99.90
6865;DHT22;3471;49.678;8.388;2024-03-02T01:51:01;5.50;99.90
6865;DHT22;3471;49.678;8.388;2024-03-02T01:53:26;5.50;99.90
6865;DHT22;3471;49.678;8.388;2024-03-02T01:55:53;5.50;99.90
6865;DHT22;3471;49.678;8.388;2024-03-02T01:58:19;5.50;99.90
6865;DHT22;3471;49.678;8.388;2024-03-02T02:00:44;5.60;99.90
6865;DHT22;3471;49.678;8.388;2024-03-02T02:03:11;5.60;99.90
6865;DHT22;3471;49.678;8.388;2024-03-02T02:05:37;5.60;99.90
6865;DHT22;3471;49.678;8.388;2024-03-02T02:08:02;5.60;99.90
6865;DHT22;3471;49.678;8.388;2024-03-02T02:10:28;5.60;99.90
6865;DHT22;3471;49.678;8.388;2024-03-02T02:12:54;5.70;99.90
6865;DHT22;3471;49.678;8.388;2024-03-02T02:15:27;5.70;99.90
6865;DHT22;3471;49.678;8.388;2024-03-02T02:17:54;5.70;99.90
6865;DHT22;3471;49.678;8.388;2024-03-02T02:20:19;5.70;99.90
6865;DHT22;3471;49.678;8.388;2024-03-02T02:25:20;5.70;99.90
6865;DHT22;3471;49.678;8.388;2024-03-02T02:27:46;5.70;99.90
6865;DHT22;3471;49.678;8.388;2024-03-02T02:30:12;5.70;99.90
6865;DHT22;3471;49.678;8.388;2024-03-02T02:32:38;5.70;99.90
6865;DHT22;3471;49.678;8.388;2024-03-02T02:35:04;5.70;99.90
6865;DHT22;3471;49.678;8.388;2024-03-02T02:37:30;5.70;99.90
6865;DHT22;3471;49.678;8.388;2024-03-02T02:39:55;5.70;99.90
6865;DHT22;3471;49.678;8.388;2024-03-02T02:42:21;5.60;99.90
6865;DHT22;3471;49.678;8.388;2024-03-02T02:44:46;5.60;99.90
6865;DHT22;3471;49.678;8.388;2024-03-02T02:47:12;5.50;99.90
6865;DHT22;3471;49.678;8.388;2024-03-02T02:49:37;5.40;99.90
6865;DHT22;3471;49.678;8.388;2024-03-02T02:52:03;5.40;99.90
6865;DHT22;3471;49.678;8.388;2024-03-02T02:54:28;5.40;99.90
6865;DHT22;3471;49.678;8.388;2024-03-02T02:56:54;5.40;99.90
6865;DHT22;3471;49.678;8.388;2024-03-02T02:59:20;5.40;99.90
6865;DHT22;3471;49.678;8.388;2024-03-02T03:01:45;5.40;99.90
6865;DHT22;3471;49.678;8.388;2024-03-02T03:04:11;5.40;99.90
6865;DHT22;3471;49.678;8.388;2024-03-02T03:06:36;5.40;99.90
6865;DHT22;3471;49.678;8.388;2024-03-02T03:09:02;5.30;99.90
6865;DHT22;3471;49.678;8.388;2024-03-02T03:11:27;5.20;99.90
6865;DHT22;3471;49.678;8.388;2024-03-02T03:13:53;5.20;99.90
6865;DHT22;3471;49.678;8.388;2024-03-02T03:16:20;5.10;99.90
6865;DHT22;3471;49.678;8.388;2024-03-02T03:18:45;5.00;99.90
6865;DHT22;3471;49.678;8.388;2024-03-02T03:21:11;4.90;99.90
6865;DHT22;3471;49.678;8.388;2024-03-02T03:23:36;4.80;99.90
6865;DHT22;3471;49.678;8.388;2024-03-02T03:26:02;4.70;99.90
6865;DHT22;3471;49.678;8.388;2024-03-02T03:28:28;4.70;99.90
6865;DHT22;3471;49.678;8.388;2024-03-02T03:30:54;4.70;99.90
6865;DHT22;3471;49.678;8.388;2024-03-02T03:33:19;4.60;99.90
6865;DHT22;3471;49.678;8.388;2024-03-02T03:35:45;4.50;99.90
6865;DHT22;3471;49.678;8.388;2024-03-02T03:38:10;4.40;99.90
6865;DHT22;3471;49.678;8.388;2024-03-02T03:40:36;4.40;99.90
6865;DHT22;3471;49.678;8.388;2024-03-02T03:43:02;4.40;99.90
6865;DHT22;3471;49.678;8.388;2024-03-02T03:45:28;4.50;99.90
6865;DHT22;3471;49.678;8.388;2024-03-02T03:47:54;4.50;99.90
6865;DHT22;3471;49.678;8.388;2024-03-02T03:50:20;4.50;99.90
6865;DHT22;3471;49.678;8.388;2024-03-02T03:52:45;4.60;99.90
6865;DHT22;3471;49.678;8.388;2024-03-02T03:55:11;4.60;99.90
6865;DHT22;3471;49.678;8.388;2024-03-02T03:57:36;4.70;99.90
6865;DHT22;3471;49.678;8.388;2024-03-02T04:00:03;4.70;99.90
6865;DHT22;3471;49.678;8.388;2024-03-02T04:02:28;4.80;99.90
6865;DHT22;3471;49.678;8.388;2024-03-02T04:04:54;4.90;99.90
6865;DHT22;3471;49.678;8.388;2024-03-02T04:07:19;5.00;99.90
6865;DHT22;3471;49.678;8.388;2024-03-02T04:09:45;5.00;99.90
6865;DHT22;3471;49.678;8.388;2024-03-02T04:12:10;5.00;99.90
6865;DHT22;3471;49.678;8.388;2024-03-02T04:14:38;5.10;99.90
6865;DHT22;3471;49.678;8.388;2024-03-02T04:17:04;5.10;99.90
6865;DHT22;3471;49.678;8.388;2024-03-02T04:19:29;5.10;99.90
6865;DHT22;3471;49.678;8.388;2024-03-02T04:21:55;5.00;99.90
6865;DHT22;3471;49.678;8.388;2024-03-02T04:24:20;5.00;99.90
6865;DHT22;3471;49.678;8.388;2024-03-02T04:26:46;4.90;99.90
6865;DHT22;3471;49.678;8.388;2024-03-02T04:29:11;4.90;99.90
6865;DHT22;3471;49.678;8.388;2024-03-02T04:31:37;4.80;99.90
6865;DHT22;3471;49.678;8.388;2024-03-02T04:34:02;4.80;99.90
6865;DHT22;3471;49.678;8.388;2024-03-02T04:36:28;4.70;99.90
6865;DHT22;3471;49.678;8.388;2024-03-02T04:38:53;4.60;99.90
6865;DHT22;3471;49.678;8.388;2024-03-02T04:41:19;4.60;99.90
6865;DHT22;3471;49.678;8.388;2024-03-02T04:43:44;4.50;99.90
6865;DHT22;3471;49.678;8.388;2024-03-02T04:46:10;4.50;99.90
6865;DHT22;3471;49.678;8.388;2024-03-02T04:48:36;4.50;99.90
6865;DHT22;3471;49.678;8.388;2024-03-02T04:51:01;4.50;99.90
6865;DHT22;3471;49.678;8.388;2024-03-02T04:53:27;4.50;99.90
6865;DHT22;3471;49.678;8.388;2024-03-02T04:55:53;4.40;99.90
6865;DHT22;3471;49.678;8.388;2024-03-02T04:58:21;4.40;99.90
6865;DHT22;3471;49.678;8.388;2024-03-02T05:00:46;4.40;99.90
6865;DHT22;3471;49.678;8.388;2024-03-02T05:03:12;4.40;99.90
6865;DHT22;3471;49.678;8.388;2024-03-02T05:05:38;4.30;99.90
6865;DHT22;3471;49.678;8.388;2024-03-02T05:08:04;4.30;99.90
6865;DHT22;3471;49.678;8.388;2024-03-02T05:10:30;4.20;99.90
6865;DHT22;3471;49.678;8.388;2024-03-02T05:12:55;4.20;99.90
6865;DHT22;3471;49.678;8.388;2024-03-02T05:15:24;4.10;99.90
6865;DHT22;3471;49.678;8.388;2024-03-02T05:17:50;4.10;99.90
6865;DHT22;3471;49.678;8.388;2024-03-02T05:20:16;4.00;99.90
6865;DHT22;3471;49.678;8.388;2024-03-02T05:22:42;3.90;99.90
6865;DHT22;3471;49.678;8.388;2024-03-02T05:25:08;3.90;99.90
6865;DHT22;3471;49.678;8.388;2024-03-02T05:27:35;3.90;99.90
6865;DHT22;3471;49.678;8.388;2024-03-02T05:30:00;3.90;99.90
6865;DHT22;3471;49.678;8.388;2024-03-02T05:32:27;4.00;99.90
6865;DHT22;3471;49.678;8.388;2024-03-02T05:34:52;4.10;99.90
6865;DHT22;3471;49.678;8.388;2024-03-02T05:37:18;4.20;99.90
6865;DHT22;3471;49.678;8.388;2024-03-02T05:39:44;4.20;99.90
6865;DHT22;3471;49.678;8.388;2024-03-02T05:42:09;4.30;99.90
6865;DHT22;3471;49.678;8.388;2024-03-02T05:44:38;4.40;99.90
6865;DHT22;3471;49.678;8.388;2024-03-02T05:47:03;4.50;99.90
6865;DHT22;3471;49.678;8.388;2024-03-02T05:49:29;4.60;99.90
6865;DHT22;3471;49.678;8.388;2024-03-02T05:51:55;4.70;99.90
6865;DHT22;3471;49.678;8.388;2024-03-02T05:54:21;4.80;99.90
6865;DHT22;3471;49.678;8.388;2024-03-02T05:56:46;4.80;99.90
6865;DHT22;3471;49.678;8.388;2024-03-02T05:59:12;4.90;99.90
6865;DHT22;3471;49.678;8.388;2024-03-02T06:01:46;5.00;99.90
6865;DHT22;3471;49.678;8.388;2024-03-02T06:04:12;5.10;99.90
6865;DHT22;3471;49.678;8.388;2024-03-02T06:06:38;5.20;99.90
6865;DHT22;3471;49.678;8.388;2024-03-02T06:09:05;5.20;99.90
6865;DHT22;3471;49.678;8.388;2024-03-02T06:11:36;5.30;99.90
6865;DHT22;3471;49.678;8.388;2024-03-02T06:14:02;5.40;99.90
6865;DHT22;3471;49.678;8.388;2024-03-02T06:16:28;5.40;99.90
6865;DHT22;3471;49.678;8.388;2024-03-02T06:18:53;5.50;99.90
6865;DHT22;3471;49.678;8.388;2024-03-02T06:21:19;5.50;99.90
6865;DHT22;3471;49.678;8.388;2024-03-02T06:23:45;5.50;99.90
6865;DHT22;3471;49.678;8.388;2024-03-02T06:26:11;5.50;99.90
6865;DHT22;3471;49.678;8.388;2024-03-02T06:28:37;5.50;99.90
6865;DHT22;3471;49.678;8.388;2024-03-02T06:31:03;5.50;99.90
6865;DHT22;3471;49.678;8.388;2024-03-02T06:33:29;5.60;99.90
6865;DHT22;3471;49.678;8.388;2024-03-02T06:35:55;5.60;99.90
6865;DHT22;3471;49.678;8.388;2024-03-02T06:38:20;5.60;99.90
6865;DHT22;3471;49.678;8.388;2024-03-02T06:40:46;5.70;99.90
6865;DHT22;3471;49.678;8.388;2024-03-02T06:43:11;5.70;99.90
6865;DHT22;3471;49.678;8.388;2024-03-02T06:45:37;5.80;99.90
6865;DHT22;3471;49.678;8.388;2024-03-02T06:48:03;5.80;99.90
6865;DHT22;3471;49.678;8.388;2024-03-02T06:50:29;5.80;99.90
6865;DHT22;3471;49.678;8.388;2024-03-02T06:52:54;5.90;99.90
6865;DHT22;3471;49.678;8.388;2024-03-02T06:55:21;5.90;99.90
6865;DHT22;3471;49.678;8.388;2024-03-02T06:57:47;5.90;99.90
6865;DHT22;3471;49.678;8.388;2024-03-02T07:00:13;5.90;99.90
6865;DHT22;3471;49.678;8.388;2024-03-02T07:02:39;6.00;99.90
6865;DHT22;3471;49.678;8.388;2024-03-02T07:05:07;6.00;99.90
6865;DHT22;3471;49.678;8.388;2024-03-02T07:07:33;6.00;99.90
6865;DHT22;3471;49.678;8.388;2024-03-02T07:10:00;6.00;99.90
6865;DHT22;3471;49.678;8.388;2024-03-02T07:12:26;6.00;99.90
6865;DHT22;3471;49.678;8.388;2024-03-02T07:14:51;6.10;99.90
6865;DHT22;3471;49.678;8.388;2024-03-02T07:17:32;6.10;99.90
6865;DHT22;3471;49.678;8.388;2024-03-02T07:19:58;6.20;99.90
6865;DHT22;3471;49.678;8.388;2024-03-02T07:22:24;6.30;99.90
6865;DHT22;3471;49.678;8.388;2024-03-02T07:24:50;6.40;99.90
6865;DHT22;3471;49.678;8.388;2024-03-02T07:27:16;6.50;99.90
6865;DHT22;3471;49.678;8.388;2024-03-02T07:29:43;6.60;99.90
6865;DHT22;3471;49.678;8.388;2024-03-02T07:32:10;6.70;99.90
6865;DHT22;3471;49.678;8.388;2024-03-02T07:34:36;6.70;99.90
6865;DHT22;3471;49.678;8.388;2024-03-02T07:37:02;6.80;99.90
6865;DHT22;3471;49.678;8.388;2024-03-02T07:39:28;6.90;99.90
6865;DHT22;3471;49.678;8.388;2024-03-02T07:41:54;7.00;99.90
6865;DHT22;3471;49.678;8.388;2024-03-02T07:44:20;7.10;99.90
6865;DHT22;3471;49.678;8.388;2024-03-02T07:46:46;7.10;99.90
6865;DHT22;3471;49.678;8.388;2024-03-02T07:49:13;7.30;99.90
6865;DHT22;3471;49.678;8.388;2024-03-02T07:51:39;7.30;99.90
6865;DHT22;3471;49.678;8.388;2024-03-02T07:54:05;7.40;99.90
6865;DHT22;3471;49.678;8.388;2024-03-02T07:56:31;7.50;99.90
6865;DHT22;3471;49.678;8.388;2024-03-02T07:58:57;7.60;99.90
6865;DHT22;3471;49.678;8.388;2024-03-02T08:01:29;7.60;99.90
6865;DHT22;3471;49.678;8.388;2024-03-02T08:04:01;7.70;99.90
6865;DHT22;3471;49.678;8.388;2024-03-02T08:06:29;7.80;99.90
6865;DHT22;3471;49.678;8.388;2024-03-02T08:08:56;7.80;99.90
6865;DHT22;3471;49.678;8.388;2024-03-02T08:11:22;7.90;99.90
6865;DHT22;3471;49.678;8.388;2024-03-02T08:13:48;7.90;99.90
6865;DHT22;3471;49.678;8.388;2024-03-02T08:16:15;8.00;99.90
6865;DHT22;3471;49.678;8.388;2024-03-02T08:18:42;8.10;99.90
6865;DHT22;3471;49.678;8.388;2024-03-02T08:21:07;8.20;99.90
6865;DHT22;3471;49.678;8.388;2024-03-02T08:23:34;8.20;99.90
6865;DHT22;3471;49.678;8.388;2024-03-02T08:26:00;8.30;99.90
6865;DHT22;3471;49.678;8.388;2024-03-02T08:28:25;8.40;99.90
6865;DHT22;3471;49.678;8.388;2024-03-02T08:30:51;8.50;99.90
6865;DHT22;3471;49.678;8.388;2024-03-02T08:33:16;8.50;99.90
6865;DHT22;3471;49.678;8.388;2024-03-02T08:35:42;8.60;99.90
6865;DHT22;3471;49.678;8.388;2024-03-02T08:38:08;8.70;99.90
6865;DHT22;3471;49.678;8.388;2024-03-02T08:40:34;8.80;99.90
6865;DHT22;3471;49.678;8.388;2024-03-02T08:42:59;8.90;99.90
6865;DHT22;3471;49.678;8.388;2024-03-02T08:45:25;9.00;99.90
6865;DHT22;3471;49.678;8.388;2024-03-02T08:47:50;9.20;99.90
6865;DHT22;3471;49.678;8.388;2024-03-02T08:50:16;9.30;99.90
6865;DHT22;3471;49.678;8.388;2024-03-02T08:52:42;9.40;99.90
6865;DHT22;3471;49.678;8.388;2024-03-02T08:55:08;9.50;99.90
6865;DHT22;3471;49.678;8.388;2024-03-02T08:57:34;9.60;99.90
6865;DHT22;3471;49.678;8.388;2024-03-02T09:00:00;9.70;99.90
6865;DHT22;3471;49.678;8.388;2024-03-02T09:02:25;9.80;99.90
6865;DHT22;3471;49.678;8.388;2024-03-02T09:04:51;9.90;99.90
6865;DHT22;3471;49.678;8.388;2024-03-02T09:07:17;10.00;99.90
6865;DHT22;3471;49.678;8.388;2024-03-02T09:09:43;10.10;99.90
6865;DHT22;3471;49.678;8.388;2024-03-02T09:12:08;10.20;99.90
6865;DHT22;3471;49.678;8.388;2024-03-02T09:14:35;10.20;99.90
6865;DHT22;3471;49.678;8.388;2024-03-02T09:17:02;10.40;99.90
6865;DHT22;3471;49.678;8.388;2024-03-02T09:19:29;10.50;99.90
6865;DHT22;3471;49.678;8.388;2024-03-02T09:21:54;10.60;99.90
6865;DHT22;3471;49.678;8.388;2024-03-02T09:24:21;10.70;99.90
6865;DHT22;3471;49.678;8.388;2024-03-02T09:26:47;10.80;99.90
6865;DHT22;3471;49.678;8.388;2024-03-02T09:29:12;10.90;99.90
6865;DHT22;3471;49.678;8.388;2024-03-02T09:31:41;11.00;99.90
6865;DHT22;3471;49.678;8.388;2024-03-02T09:34:07;11.20;99.90
6865;DHT22;3471;49.678;8.388;2024-03-02T09:36:33;11.40;99.90
6865;DHT22;3471;49.678;8.388;2024-03-02T09:38:58;11.60;99.90
6865;DHT22;3471;49.678;8.388;2024-03-02T09:41:24;11.80;99.90
6865;DHT22;3471;49.678;8.388;2024-03-02T09:43:50;12.10;99.90
6865;DHT22;3471;49.678;8.388;2024-03-02T09:46:16;12.30;99.90
6865;DHT22;3471;49.678;8.388;2024-03-02T09:48:43;12.60;99.90
6865;DHT22;3471;49.678;8.388;2024-03-02T09:51:09;12.80;99.90
6865;DHT22;3471;49.678;8.388;2024-03-02T09:53:36;13.10;99.90
6865;DHT22;3471;49.678;8.388;2024-03-02T09:56:01;13.00;99.90
6865;DHT22;3471;49.678;8.388;2024-03-02T09:58:27;13.30;99.90
6865;DHT22;3471;49.678;8.388;2024-03-02T10:00:53;13.40;99.90
6865;DHT22;3471;49.678;8.388;2024-03-02T10:03:19;13.40;99.90
6865;DHT22;3471;49.678;8.388;2024-03-02T10:05:46;13.50;99.90
6865;DHT22;3471;49.678;8.388;2024-03-02T10:08:11;13.50;99.90
6865;DHT22;3471;49.678;8.388;2024-03-02T10:10:41;13.60;99.90
6865;DHT22;3471;49.678;8.388;2024-03-02T10:13:09;13.70;99.90
6865;DHT22;3471;49.678;8.388;2024-03-02T10:15:36;13.80;99.90
6865;DHT22;3471;49.678;8.388;2024-03-02T10:18:12;14.00;99.90
6865;DHT22;3471;49.678;8.388;2024-03-02T10:20:39;14.00;99.90
6865;DHT22;3471;49.678;8.388;2024-03-02T10:23:15;14.10;99.90
6865;DHT22;3471;49.678;8.388;2024-03-02T10:25:42;14.20;99.90
6865;DHT22;3471;49.678;8.388;2024-03-02T10:28:08;14.20;99.90
6865;DHT22;3471;49.678;8.388;2024-03-02T10:30:35;14.30;99.90
6865;DHT22;3471;49.678;8.388;2024-03-02T10:33:01;14.40;99.90
6865;DHT22;3471;49.678;8.388;2024-03-02T10:35:27;14.60;99.90
6865;DHT22;3471;49.678;8.388;2024-03-02T10:37:53;14.90;99.90
6865;DHT22;3471;49.678;8.388;2024-03-02T10:40:22;15.10;99.90
6865;DHT22;3471;49.678;8.388;2024-03-02T10:42:49;15.10;99.90
6865;DHT22;3471;49.678;8.388;2024-03-02T10:45:16;15.30;99.90
6865;DHT22;3471;49.678;8.388;2024-03-02T10:47:43;15.50;99.90
6865;DHT22;3471;49.678;8.388;2024-03-02T10:50:10;15.60;99.90
6865;DHT22;3471;49.678;8.388;2024-03-02T10:52:36;15.70;99.90
6865;DHT22;3471;49.678;8.388;2024-03-02T10:55:02;15.70;99.90
6865;DHT22;3471;49.678;8.388;2024-03-02T10:57:41;15.60;99.90
6865;DHT22;3471;49.678;8.388;2024-03-02T11:00:12;15.60;99.90
6865;DHT22;3471;49.678;8.388;2024-03-02T11:02:42;15.50;99.90
6865;DHT22;3471;49.678;8.388;2024-03-02T11:05:11;15.40;99.90
6865;DHT22;3471;49.678;8.388;2024-03-02T11:07:38;15.40;99.90
6865;DHT22;3471;49.678;8.388;2024-03-02T11:10:05;15.40;99.90
6865;DHT22;3471;49.678;8.388;2024-03-02T11:12:39;15.50;99.90
6865;DHT22;3471;49.678;8.388;2024-03-02T11:15:17;15.50;99.90
6865;DHT22;3471;49.678;8.388;2024-03-02T11:17:44;15.60;99.90
6865;DHT22;3471;49.678;8.388;2024-03-02T11:20:11;15.80;99.90
6865;DHT22;3471;49.678;8.388;2024-03-02T11:22:37;16.00;99.90
6865;DHT22;3471;49.678;8.388;2024-03-02T11:25:03;16.20;99.90
6865;DHT22;3471;49.678;8.388;2024-03-02T11:35:25;17.80;99.90
6865;DHT22;3471;49.678;8.388;2024-03-02T11:37:52;18.10;99.90
6865;DHT22;3471;49.678;8.388;2024-03-02T11:40:28;18.40;99.90
6865;DHT22;3471;49.678;8.388;2024-03-02T11:42:54;18.60;99.90
6865;DHT22;3471;49.678;8.388;2024-03-02T11:45:26;18.90;99.90
6865;DHT22;3471;49.678;8.388;2024-03-02T11:47:54;19.40;99.90
6865;DHT22;3471;49.678;8.388;2024-03-02T11:50:29;19.80;99.90
6865;DHT22;3471;49.678;8.388;2024-03-02T11:52:56;20.30;99.90
6865;DHT22;3471;49.678;8.388;2024-03-02T11:55:23;20.60;99.90
6865;DHT22;3471;49.678;8.388;2024-03-02T11:57:52;20.60;99.90
6865;DHT22;3471;49.678;8.388;2024-03-02T12:00:21;20.90;99.60
6865;DHT22;3471;49.678;8.388;2024-03-02T12:02:48;21.20;97.50
6865;DHT22;3471;49.678;8.388;2024-03-02T12:05:24;21.40;98.50
6865;DHT22;3471;49.678;8.388;2024-03-02T12:07:56;21.80;96.20
6865;DHT22;3471;49.678;8.388;2024-03-02T12:10:22;21.90;97.50
6865;DHT22;3471;49.678;8.388;2024-03-02T12:12:47;21.70;97.20
6865;DHT22;3471;49.678;8.388;2024-03-02T12:15:13;21.70;98.10
6865;DHT22;3471;49.678;8.388;2024-03-02T12:17:38;22.10;96.30
6865;DHT22;3471;49.678;8.388;2024-03-02T12:20:05;22.50;95.80
6865;DHT22;3471;49.678;8.388;2024-03-02T12:22:32;22.70;92.30
6865;DHT22;3471;49.678;8.388;2024-03-02T12:24:58;22.40;92.90
6865;DHT22;3471;49.678;8.388;2024-03-02T12:27:23;22.20;94.50
6865;DHT22;3471;49.678;8.388;2024-03-02T12:29:49;21.90;93.90
6865;DHT22;3471;49.678;8.388;2024-03-02T12:32:15;21.80;94.50
6865;DHT22;3471;49.678;8.388;2024-03-02T12:34:41;21.70;93.50
6865;DHT22;3471;49.678;8.388;2024-03-02T12:37:07;21.40;93.20
6865;DHT22;3471;49.678;8.388;2024-03-02T12:39:32;21.00;95.20
6865;DHT22;3471;49.678;8.388;2024-03-02T12:41:58;20.60;94.10
6865;DHT22;3471;49.678;8.388;2024-03-02T12:44:23;20.30;93.20
6865;DHT22;3471;49.678;8.388;2024-03-02T12:46:49;19.90;94.50
6865;DHT22;3471;49.678;8.388;2024-03-02T12:49:15;19.60;94.00
6865;DHT22;3471;49.678;8.388;2024-03-02T12:51:42;19.20;96.20
6865;DHT22;3471;49.678;8.388;2024-03-02T12:54:10;19.00;96.50
6865;DHT22;3471;49.678;8.388;2024-03-02T12:56:37;18.80;96.80
6865;DHT22;3471;49.678;8.388;2024-03-02T12:59:06;18.60;98.10
6865;DHT22;3471;49.678;8.388;2024-03-02T13:01:31;18.50;96.30
6865;DHT22;3471;49.678;8.388;2024-03-02T13:03:58;18.40;97.00
6865;DHT22;3471;49.678;8.388;2024-03-02T13:06:25;18.30;96.20
6865;DHT22;3471;49.678;8.388;2024-03-02T13:08:53;18.40;96.00
6865;DHT22;3471;49.678;8.388;2024-03-02T13:11:20;18.70;98.30
6865;DHT22;3471;49.678;8.388;2024-03-02T13:13:46;19.30;98.50
6865;DHT22;3471;49.678;8.388;2024-03-02T13:16:12;20.20;96.70
6865;DHT22;3471;49.678;8.388;2024-03-02T13:18:39;21.10;96.30
6865;DHT22;3471;49.678;8.388;2024-03-02T13:21:06;22.30;96.80
6865;DHT22;3471;49.678;8.388;2024-03-02T13:23:31;23.30;93.50
6865;DHT22;3471;49.678;8.388;2024-03-02T13:25:58;24.40;91.60
6865;DHT22;3471;49.678;8.388;2024-03-02T13:28:27;25.20;92.50
6865;DHT22;3471;49.678;8.388;2024-03-02T13:30:52;25.90;83.50
6865;DHT22;3471;49.678;8.388;2024-03-02T13:33:18;26.50;85.10
6865;DHT22;3471;49.678;8.388;2024-03-02T13:35:48;27.10;85.60
6865;DHT22;3471;49.678;8.388;2024-03-02T13:38:16;27.30;82.20
6865;DHT22;3471;49.678;8.388;2024-03-02T13:40:41;27.80;82.30
6865;DHT22;3471;49.678;8.388;2024-03-02T13:43:07;28.20;81.10
6865;DHT22;3471;49.678;8.388;2024-03-02T13:45:33;28.40;74.60
6865;DHT22;3471;49.678;8.388;2024-03-02T13:48:00;28.60;72.20
6865;DHT22;3471;49.678;8.388;2024-03-02T13:50:25;28.70;73.40
6865;DHT22;3471;49.678;8.388;2024-03-02T13:52:51;28.80;75.50
6865;DHT22;3471;49.678;8.388;2024-03-02T13:55:16;28.70;72.60
6865;DHT22;3471;49.678;8.388;2024-03-02T13:57:42;28.80;73.10
6865;DHT22;3471;49.678;8.388;2024-03-02T14:00:08;28.90;69.20
6865;DHT22;3471;49.678;8.388;2024-03-02T14:02:36;28.80;70.60
6865;DHT22;3471;49.678;8.388;2024-03-02T14:05:01;28.90;64.90
6865;DHT22;3471;49.678;8.388;2024-03-02T14:07:27;28.80;70.00
6865;DHT22;3471;49.678;8.388;2024-03-02T14:09:53;28.80;71.80
6865;DHT22;3471;49.678;8.388;2024-03-02T14:12:18;28.90;66.30
6865;DHT22;3471;49.678;8.388;2024-03-02T14:14:44;28.90;69.90
6865;DHT22;3471;49.678;8.388;2024-03-02T14:17:10;28.80;67.90
6865;DHT22;3471;49.678;8.388;2024-03-02T14:19:40;28.60;66.50
6865;DHT22;3471;49.678;8.388;2024-03-02T14:22:07;28.40;66.70
6865;DHT22;3471;49.678;8.388;2024-03-02T14:24:33;28.30;70.10
6865;DHT22;3471;49.678;8.388;2024-03-02T14:26:58;28.00;69.50
6865;DHT22;3471;49.678;8.388;2024-03-02T14:29:27;27.80;69.70
6865;DHT22;3471;49.678;8.388;2024-03-02T14:31:52;27.20;71.20
6865;DHT22;3471;49.678;8.388;2024-03-02T14:34:18;26.40;73.60
6865;DHT22;3471;49.678;8.388;2024-03-02T14:36:43;26.10;72.30
6865;DHT22;3471;49.678;8.388;2024-03-02T14:39:10;26.20;70.70
6865;DHT22;3471;49.678;8.388;2024-03-02T14:41:36;26.20;72.50
6865;DHT22;3471;49.678;8.388;2024-03-02T14:44:02;25.50;74.60
6865;DHT22;3471;49.678;8.388;2024-03-02T14:46:28;25.20;77.70
6865;DHT22;3471;49.678;8.388;2024-03-02T14:48:54;25.20;68.70
6865;DHT22;3471;49.678;8.388;2024-03-02T14:51:20;25.00;73.00
6865;DHT22;3471;49.678;8.388;2024-03-02T14:53:45;24.80;74.50
6865;DHT22;3471;49.678;8.388;2024-03-02T14:56:11;24.70;76.30
6865;DHT22;3471;49.678;8.388;2024-03-02T14:58:38;24.30;76.00
6865;DHT22;3471;49.678;8.388;2024-03-02T15:01:04;23.80;77.20
6865;DHT22;3471;49.678;8.388;2024-03-02T15:03:35;23.50;80.40
6865;DHT22;3471;49.678;8.388;2024-03-02T15:06:01;23.00;80.40
6865;DHT22;3471;49.678;8.388;2024-03-02T15:08:29;22.60;78.70
6865;DHT22;3471;49.678;8.388;2024-03-02T15:10:55;22.20;80.80
6865;DHT22;3471;49.678;8.388;2024-03-02T15:13:21;21.70;82.00
6865;DHT22;3471;49.678;8.388;2024-03-02T15:15:47;21.30;83.50
6865;DHT22;3471;49.678;8.388;2024-03-02T15:18:13;21.20;85.40
6865;DHT22;3471;49.678;8.388;2024-03-02T15:20:38;21.00;83.10
6865;DHT22;3471;49.678;8.388;2024-03-02T15:23:04;20.70;86.80
6865;DHT22;3471;49.678;8.388;2024-03-02T15:25:30;20.40;89.40
6865;DHT22;3471;49.678;8.388;2024-03-02T15:27:56;20.00;90.20
6865;DHT22;3471;49.678;8.388;2024-03-02T15:30:21;19.70;91.50
6865;DHT22;3471;49.678;8.388;2024-03-02T15:32:47;19.20;91.70
6865;DHT22;3471;49.678;8.388;2024-03-02T15:35:12;18.90;92.30
6865;DHT22;3471;49.678;8.388;2024-03-02T15:37:38;18.60;90.90
6865;DHT22;3471;49.678;8.388;2024-03-02T15:40:04;18.30;90.60
6865;DHT22;3471;49.678;8.388;2024-03-02T15:42:34;18.10;92.60
6865;DHT22;3471;49.678;8.388;2024-03-02T15:45:00;17.90;94.50
6865;DHT22;3471;49.678;8.388;2024-03-02T15:47:26;17.70;94.50
6865;DHT22;3471;49.678;8.388;2024-03-02T15:49:51;17.50;95.60
6865;DHT22;3471;49.678;8.388;2024-03-02T15:52:17;17.30;95.90
6865;DHT22;3471;49.678;8.388;2024-03-02T15:54:50;17.10;96.90
6865;DHT22;3471;49.678;8.388;2024-03-02T15:57:16;16.90;97.80
6865;DHT22;3471;49.678;8.388;2024-03-02T15:59:43;16.80;97.60
6865;DHT22;3471;49.678;8.388;2024-03-02T16:02:09;16.60;98.20
6865;DHT22;3471;49.678;8.388;2024-03-02T16:04:34;16.50;99.00
6865;DHT22;3471;49.678;8.388;2024-03-02T16:07:00;16.40;99.60
6865;DHT22;3471;49.678;8.388;2024-03-02T16:09:26;16.30;99.80
6865;DHT22;3471;49.678;8.388;2024-03-02T16:11:51;16.20;99.90
6865;DHT22;3471;49.678;8.388;2024-03-02T16:14:17;16.10;99.90
6865;DHT22;3471;49.678;8.388;2024-03-02T16:16:43;15.90;99.90